New Castle Airport
KILG : now visible

Airfield :











YOU CAN JOIN US ON...

 
LOGIN :

Register | Disclaimer

   EN    FR    IT 

 









Legend :    VFR   Marginal VFR   IFR   Intensive IFR   Very Intensive IFR
Visi :
Ceiling :
>= 8 km
>= 3000ft
5 to 8 km
1000 to 3000 ft
1500m to 5 km
500 to 1000 ft
800 to 1500m
200 to 500 ft
< 800m
< 200 ft
Symbols :   Thunderstorms  Fog  Heavy snow  Heavy precipitations  Wind > 20 kt






- Airport Elevation : 80 ft
- IATA code : ILG


KILG - New Castle

CURRENT METAR :
  • 050551Z AUTO 19004KT 9SM CLR 23/21 A2996 RMK AO2 SLP143 T02280206 10267 20228 51005 $

EXPIRED METARs :
  • 050451Z AUTO 20004KT 10SM CLR 23/21 A2995 RMK AO2 SLP140 T02330206 403110217 $
  • 050351Z AUTO 19006KT 10SM CLR 24/21 A2995 RMK AO2 SLP142 T02390211 $

TAF KILG
Valid from the 05 at 06:00 until the 06 at 06:00 UTC


050521Z 0506/0606 20005KT P6SM SCT250
FM050800 VRB02KT P6SM SCT250
TEMPO 0508/0512 5SM BR
FM051400 28005KT P6SM SKC
FM051900 22008KT P6SM SKC
FM060100 22004KT P6SM SKC
KZDC FIR / North America



MET'MAP, your aeronautical weather chart ! - Copyright ORBIFLY December 2007 - Disclaimer

ORBIFLY MET'MAP TEAM :

Programming & Development : Alexandra Zaïnal
Concept & original design : Baudouin d'Aumeries
Assistance for programming : Marc-Olivier Méhu
Technical & hardware support : Manuel Goepfert

Contact : metmap@orbifly.com




SOURCES & CREDITS :

   NOAA       Earth
Advisory